Time;durP1;ratioP1;P1;durP2;ratioP2;P2;SDS_P1;SDS_P2;PMS_P1;PMS_P2;Temp;Humidity;BMP_temperature;BMP_pressure;BME280_temperature;BME280_humidity;BME280_pressure;Samples;Min_cycle;Max_cycle;Signal;HPM_P1;HPM_P2
2022/04/10 00:00:57;;;;;;;0.38;0.38;;;7.40;99.90;;;;;;5113221;28;20039;-72
2022/04/10 00:04:00;;;;;;;2.20;0.30;;;7.40;99.90;;;;;;5112967;28;20043;-72
2022/04/10 00:07:04;;;;;;;0.20;0.20;;;7.50;99.90;;;;;;5112363;28;20470;-72
2022/04/10 00:10:09;;;;;;;0.63;0.30;;;7.50;99.90;;;;;;5112781;28;20050;-72
2022/04/10 00:13:15;;;;;;;0.30;0.30;;;7.40;99.90;;;;;;5111861;28;20047;-63
2022/04/10 00:16:19;;;;;;;0.32;0.30;;;7.40;99.90;;;;;;5111971;28;20112;-64
2022/04/10 00:19:23;;;;;;;0.40;0.40;;;7.40;99.90;;;;;;5112802;28;20044;-64
2022/04/10 00:22:27;;;;;;;2.50;0.32;;;7.50;99.90;;;;;;5113178;28;20046;-64
2022/04/10 00:25:31;;;;;;;1.48;0.22;;;7.40;99.90;;;;;;5111973;28;20048;-64
2022/04/10 00:28:35;;;;;;;0.20;0.20;;;7.20;99.90;;;;;;5113079;28;20051;-64
2022/04/10 00:31:39;;;;;;;0.30;0.30;;;7.10;99.90;;;;;;5113176;28;20058;-64
2022/04/10 00:34:43;;;;;;;0.68;0.40;;;6.90;99.90;;;;;;5113026;28;20047;-64
2022/04/10 00:37:47;;;;;;;0.60;0.32;;;6.80;99.90;;;;;;5113225;28;20043;-63
2022/04/10 00:40:52;;;;;;;0.95;0.40;;;6.70;99.90;;;;;;5111407;28;20505;-64
2022/04/10 00:44:04;;;;;;;1.70;0.40;;;6.60;99.90;;;;;;5112305;28;20630;-64
2022/04/10 00:47:10;;;;;;;0.77;0.30;;;6.50;99.90;;;;;;5112109;28;20685;-63
2022/04/10 00:50:16;;;;;;;0.55;0.40;;;6.40;99.90;;;;;;5110990;28;20124;-63
2022/04/10 00:53:20;;;;;;;1.00;0.45;;;6.40;99.90;;;;;;5112376;28;20386;-64
2022/04/10 00:56:24;;;;;;;0.85;0.60;;;6.30;99.90;;;;;;5111570;28;20040;-64
2022/04/10 00:59:29;;;;;;;0.63;0.30;;;6.30;99.90;;;;;;5111789;28;20394;-64
2022/04/10 01:02:34;;;;;;;0.70;0.40;;;6.20;99.90;;;;;;5113386;28;20036;-63
2022/04/10 01:05:40;;;;;;;0.73;0.50;;;6.20;99.90;;;;;;5111682;28;20478;-63
2022/04/10 01:08:45;;;;;;;2.38;0.70;;;6.10;99.90;;;;;;5111911;28;20035;-64
2022/04/10 01:11:52;;;;;;;0.60;0.50;;;6.10;99.90;;;;;;5112292;28;20047;-63
2022/04/10 01:14:59;;;;;;;1.58;0.73;;;6.00;99.90;;;;;;5100642;28;20050;-64
2022/04/10 01:18:11;;;;;;;1.73;0.70;;;6.00;99.90;;;;;;5110609;28;20043;-72
2022/04/10 01:21:25;;;;;;;0.95;0.52;;;6.00;99.90;;;;;;5111336;28;20035;-71
2022/04/10 01:24:37;;;;;;;0.45;0.40;;;6.00;99.90;;;;;;5111998;28;20043;-72
2022/04/10 01:27:42;;;;;;;0.52;0.40;;;5.90;99.90;;;;;;5110494;28;20046;-71
2022/04/10 01:30:46;;;;;;;0.93;0.52;;;5.90;99.90;;;;;;5111911;28;20054;-71
2022/04/10 01:33:51;;;;;;;1.73;0.70;;;5.90;99.90;;;;;;5111051;28;20036;-72
2022/04/10 01:36:56;;;;;;;1.75;0.63;;;5.80;99.90;;;;;;5113352;28;20040;-71
2022/04/10 01:40:03;;;;;;;1.05;0.50;;;5.70;99.90;;;;;;5117381;28;20043;-72
2022/04/10 01:43:08;;;;;;;1.50;0.52;;;5.70;99.90;;;;;;5116285;28;20044;-71
2022/04/10 01:46:13;;;;;;;4.13;0.82;;;5.60;99.90;;;;;;5115448;28;20338;-71
2022/04/10 01:49:17;;;;;;;1.23;0.70;;;5.60;99.90;;;;;;5115305;28;20035;-71
2022/04/10 01:52:21;;;;;;;0.65;0.55;;;5.60;99.90;;;;;;5116562;28;20054;-71
2022/04/10 01:55:26;;;;;;;1.98;0.50;;;5.50;99.90;;;;;;5114635;28;20542;-71
2022/04/10 01:58:31;;;;;;;0.85;0.50;;;5.50;99.90;;;;;;5115506;28;20043;-64
2022/04/10 02:01:36;;;;;;;0.73;0.50;;;5.40;99.90;;;;;;5114483;28;20048;-63
2022/04/10 02:04:40;;;;;;;1.00;0.50;;;5.30;99.90;;;;;;5114225;28;20043;-64
2022/04/10 02:07:44;;;;;;;2.85;0.60;;;5.20;99.90;;;;;;5113235;28;20397;-64
2022/04/10 02:10:48;;;;;;;1.10;0.63;;;5.20;99.90;;;;;;5114273;28;20036;-63
2022/04/10 02:13:54;;;;;;;1.45;0.60;;;5.10;99.90;;;;;;5114293;28;20043;-64
2022/04/10 02:16:59;;;;;;;2.28;0.68;;;5.00;99.90;;;;;;5114752;28;20039;-63
2022/04/10 02:20:03;;;;;;;3.78;0.65;;;5.00;99.90;;;;;;5114587;28;20046;-64
2022/04/10 02:23:08;;;;;;;0.98;0.55;;;4.90;99.90;;;;;;5114852;28;20040;-65
2022/04/10 02:26:13;;;;;;;0.90;0.60;;;4.80;99.90;;;;;;5114133;28;20043;-65
2022/04/10 02:29:17;;;;;;;2.85;0.70;;;4.80;99.90;;;;;;5114606;28;20055;-64
2022/04/10 02:32:26;;;;;;;1.05;0.73;;;4.70;99.90;;;;;;5115207;28;20039;-63
2022/04/10 02:35:30;;;;;;;2.60;0.90;;;4.70;99.90;;;;;;5114259;28;20048;-64
2022/04/10 02:38:35;;;;;;;1.02;0.52;;;4.70;99.90;;;;;;5113899;28;20073;-64
2022/04/10 02:41:40;;;;;;;2.92;0.75;;;4.70;99.90;;;;;;5113632;28;20054;-64
2022/04/10 02:44:46;;;;;;;1.20;0.70;;;4.60;99.90;;;;;;5113893;28;20058;-63
2022/04/10 02:47:50;;;;;;;1.17;0.60;;;4.60;99.90;;;;;;5112389;28;20055;-63
2022/04/10 02:50:54;;;;;;;2.47;0.80;;;4.60;99.90;;;;;;5113605;28;20036;-64
2022/04/10 02:53:58;;;;;;;1.92;0.68;;;4.50;99.90;;;;;;5112875;28;20039;-63
2022/04/10 02:57:20;;;;;;;2.35;0.85;;;4.50;99.90;;;;;;5113128;28;20046;-63
2022/04/10 03:00:44;;;;;;;1.42;0.70;;;4.40;99.90;;;;;;5113790;28;20497;-64
2022/04/10 03:04:07;;;;;;;2.90;1.50;;;4.40;99.90;;;;;;5112927;28;20035;-63
2022/04/10 03:07:31;;;;;;;2.42;1.52;;;4.40;99.90;;;;;;5112662;28;20043;-64
2022/04/10 03:10:57;;;;;;;2.25;0.82;;;4.30;99.90;;;;;;5113580;28;20036;-64
2022/04/10 03:14:20;;;;;;;1.33;0.77;;;4.20;99.90;;;;;;5113571;28;20031;-64
2022/04/10 03:17:44;;;;;;;2.50;0.70;;;4.20;99.90;;;;;;5112308;28;20391;-64
2022/04/10 03:21:07;;;;;;;3.22;0.95;;;4.10;99.90;;;;;;5113562;28;20044;-64
2022/04/10 03:24:30;;;;;;;3.13;1.33;;;4.10;99.90;;;;;;5115460;28;20032;-71
2022/04/10 03:27:53;;;;;;;1.80;0.50;;;4.00;99.90;;;;;;5112469;28;20035;-71
2022/04/10 03:31:16;;;;;;;3.25;0.80;;;4.00;99.90;;;;;;5113603;28;20493;-71
2022/04/10 03:34:38;;;;;;;1.52;0.80;;;3.90;99.90;;;;;;5112380;28;20047;-71
2022/04/10 03:38:02;;;;;;;1.73;0.73;;;3.90;99.90;;;;;;5111864;28;20040;-71
2022/04/10 03:41:25;;;;;;;3.55;0.70;;;3.80;99.90;;;;;;5112633;28;20390;-71
2022/04/10 03:44:48;;;;;;;1.75;0.80;;;3.80;99.90;;;;;;5112587;28;20027;-71
2022/04/10 03:48:12;;;;;;;1.15;0.63;;;3.80;99.90;;;;;;5111622;28;20043;-71
2022/04/10 03:51:36;;;;;;;2.65;0.70;;;3.70;99.90;;;;;;5113025;28;20052;-71
2022/04/10 03:54:58;;;;;;;2.47;0.70;;;3.80;99.90;;;;;;5113643;28;20043;-71
2022/04/10 03:58:21;;;;;;;0.93;0.73;;;3.80;99.90;;;;;;5112619;28;20038;-71
2022/04/10 04:01:46;;;;;;;1.77;1.05;;;3.80;99.90;;;;;;5113484;28;20043;-71
2022/04/10 04:05:09;;;;;;;3.72;0.95;;;3.70;99.90;;;;;;5113804;28;20129;-71
2022/04/10 04:08:33;;;;;;;4.47;0.93;;;3.70;99.90;;;;;;5113417;28;20109;-71
2022/04/10 04:11:56;;;;;;;1.20;0.73;;;3.80;99.90;;;;;;5113064;28;20395;-64
2022/04/10 04:15:21;;;;;;;1.92;0.90;;;3.70;99.90;;;;;;5113136;28;20035;-63
2022/04/10 04:18:46;;;;;;;3.00;1.20;;;3.70;99.90;;;;;;5112775;28;20501;-64
2022/04/10 04:22:10;;;;;;;2.15;1.13;;;3.70;99.90;;;;;;5113417;28;20035;-63
2022/04/10 04:25:34;;;;;;;4.70;1.55;;;3.70;99.90;;;;;;5113414;28;20044;-63
2022/04/10 04:28:58;;;;;;;2.03;0.93;;;3.70;99.90;;;;;;5112569;28;20039;-63
2022/04/10 04:32:22;;;;;;;1.15;0.90;;;3.60;99.90;;;;;;5112402;28;20073;-65
2022/04/10 04:35:47;;;;;;;2.25;1.08;;;3.60;99.90;;;;;;5112980;28;20063;-64
2022/04/10 04:39:10;;;;;;;2.25;1.00;;;3.60;99.90;;;;;;5111608;28;20051;-64
2022/04/10 04:42:33;;;;;;;3.42;0.88;;;3.60;99.90;;;;;;5111899;28;20047;-65
2022/04/10 04:45:58;;;;;;;5.22;1.10;;;3.50;99.90;;;;;;5113416;28;20510;-63
2022/04/10 04:49:21;;;;;;;1.27;0.90;;;3.50;99.90;;;;;;5111342;28;20048;-72
2022/04/10 04:52:44;;;;;;;3.63;0.90;;;3.50;99.90;;;;;;5111957;28;20040;-71
2022/04/10 04:56:07;;;;;;;1.30;0.73;;;3.50;99.90;;;;;;5111045;28;20046;-72
2022/04/10 04:59:33;;;;;;;2.35;0.85;;;3.50;99.90;;;;;;5111139;28;20050;-71
2022/04/10 05:02:58;;;;;;;5.03;0.80;;;3.50;99.90;;;;;;5110835;28;20048;-71
2022/04/10 05:06:22;;;;;;;1.27;0.65;;;3.60;99.90;;;;;;5110319;28;20055;-71
2022/04/10 05:09:44;;;;;;;1.25;0.98;;;3.60;99.90;;;;;;5110570;28;20515;-71
2022/04/10 05:13:08;;;;;;;0.90;0.70;;;3.60;99.90;;;;;;5110999;28;20050;-71
2022/04/10 05:16:32;;;;;;;1.75;1.00;;;3.70;99.90;;;;;;5110218;28;20761;-71
2022/04/10 05:19:57;;;;;;;3.90;1.25;;;3.80;99.90;;;;;;5110451;28;20047;-71
2022/04/10 05:23:21;;;;;;;1.67;1.13;;;3.90;99.90;;;;;;5110913;28;20478;-71
2022/04/10 05:26:52;;;;;;;2.40;0.93;;;4.00;99.90;;;;;;5110425;28;20047;-71
2022/04/10 05:30:16;;;;;;;3.00;1.42;;;4.50;99.90;;;;;;5111167;28;20047;-71
2022/04/10 05:33:41;;;;;;;5.97;0.90;;;7.90;99.90;;;;;;5110485;28;20051;-71
2022/04/10 05:37:04;;;;;;;2.10;0.80;;;11.20;99.90;;;;;;5109867;28;20048;-72
2022/04/10 05:40:32;;;;;;;2.05;0.85;;;13.70;99.90;;;;;;5110066;28;20038;-72
2022/04/10 05:43:55;;;;;;;1.67;0.80;;;15.90;99.20;;;;;;5110480;28;20493;-71
2022/04/10 05:47:19;;;;;;;1.77;1.25;;;16.80;96.50;;;;;;5110005;28;20054;-71
2022/04/10 05:50:43;;;;;;;1.63;0.73;;;17.60;95.30;;;;;;5110289;28;20047;-70
2022/04/10 05:54:06;;;;;;;1.92;0.70;;;18.30;94.20;;;;;;5108973;28;20046;-71
2022/04/10 05:57:36;;;;;;;3.00;1.20;;;18.60;93.00;;;;;;5109921;28;20129;-70
2022/04/10 06:00:59;;;;;;;5.22;2.38;;;18.20;92.70;;;;;;5110415;28;20094;-72
2022/04/10 06:04:22;;;;;;;3.45;1.40;;;18.40;92.70;;;;;;5111028;28;20500;-72
2022/04/10 06:07:44;;;;;;;4.05;0.80;;;18.70;91.90;;;;;;5109871;28;20051;-72
2022/04/10 06:11:08;;;;;;;2.72;0.90;;;19.40;91.30;;;;;;5110314;28;20055;-72
2022/04/10 06:14:34;;;;;;;1.30;0.80;;;19.10;91.10;;;;;;5109076;28;20039;-72
2022/04/10 06:17:40;;;;;;;3.50;1.13;;;19.00;90.70;;;;;;5109778;28;20042;-72
2022/04/10 06:20:44;;;;;;;2.90;0.90;;;19.50;90.60;;;;;;5110208;28;20042;-72
2022/04/10 06:23:48;;;;;;;3.67;1.20;;;19.90;89.60;;;;;;5114029;28;20051;-72
2022/04/10 06:27:04;;;;;;;1.75;0.90;;;20.80;88.30;;;;;;5113818;28;20481;-72
2022/04/10 06:30:10;;;;;;;7.10;1.77;;;20.70;87.80;;;;;;5114435;28;20050;-72
2022/04/10 06:33:19;;;;;;;2.35;1.50;;;20.80;86.50;;;;;;5114703;28;20042;-72
2022/04/10 06:36:27;;;;;;;2.63;1.40;;;21.00;85.20;;;;;;5113087;28;20039;-72
2022/04/10 06:39:31;;;;;;;2.13;1.30;;;21.80;84.80;;;;;;5113680;28;20417;-72
2022/04/10 06:42:36;;;;;;;3.03;1.35;;;21.80;83.00;;;;;;5113377;28;20050;-72
2022/04/10 06:45:58;;;;;;;;;;;21.60;82.30;;;;;;5115386;28;20043;-72
2022/04/10 06:49:14;;;;;;;2.47;1.60;;;22.10;81.70;;;;;;5113821;28;19912;-72
2022/04/10 06:52:20;;;;;;;4.10;2.38;;;22.60;80.50;;;;;;5113325;28;20054;-72
2022/04/10 06:55:25;;;;;;;3.50;1.60;;;22.60;79.70;;;;;;5113179;28;20513;-71
2022/04/10 06:58:29;;;;;;;3.88;2.05;;;22.60;78.60;;;;;;5113168;28;20394;-71
2022/04/10 07:01:35;;;;;;;3.83;1.90;;;23.00;78.30;;;;;;5112921;28;20050;-70
2022/04/10 07:04:39;;;;;;;4.88;3.10;;;23.50;75.80;;;;;;5113128;28;20047;-70
2022/04/10 07:07:45;;;;;;;6.43;3.00;;;23.20;74.20;;;;;;5112688;28;20506;-70
2022/04/10 07:10:51;;;;;;;5.53;2.45;;;23.80;74.40;;;;;;5113109;28;20047;-69
2022/04/10 07:13:56;;;;;;;2.20;1.20;;;24.40;74.00;;;;;;5113176;28;20046;-69
2022/04/10 07:17:00;;;;;;;3.33;2.22;;;24.80;71.70;;;;;;5113020;28;20050;-70
2022/04/10 07:20:04;;;;;;;4.25;1.77;;;24.70;71.60;;;;;;5112976;28;20039;-70
2022/04/10 07:26:34;;;;;;;2.92;1.83;;;25.00;69.10;;;;;;5112190;28;20054;-73
2022/04/10 07:29:43;;;;;;;2.63;1.50;;;25.50;68.80;;;;;;5112539;28;20047;-70
2022/04/10 07:32:57;;;;;;;2.05;1.45;;;25.90;68.10;;;;;;5112529;28;20055;-73
2022/04/10 07:36:05;;;;;;;2.17;1.55;;;25.30;65.00;;;;;;5112344;28;20042;-72
2022/04/10 07:39:14;;;;;;;2.72;1.85;;;24.70;65.60;;;;;;5112738;28;20051;-72
2022/04/10 07:42:22;;;;;;;3.67;2.00;;;24.20;65.80;;;;;;5112488;28;20043;-73
2022/04/10 07:48:58;;;;;;;3.42;1.70;;;23.50;66.60;;;;;;5112696;28;20042;-72
2022/04/10 07:52:06;;;;;;;2.70;1.75;;;23.40;65.50;;;;;;5111865;28;20063;-72
2022/04/10 07:55:22;;;;;;;2.97;1.77;;;23.30;66.00;;;;;;5110775;28;20043;-72
2022/04/10 07:58:26;;;;;;;2.15;1.42;;;22.60;64.70;;;;;;5111503;28;21133;-73
2022/04/10 08:01:32;;;;;;;3.67;1.92;;;22.40;65.60;;;;;;5111987;28;20382;-72
2022/04/10 08:04:41;;;;;;;3.35;1.80;;;23.70;64.60;;;;;;5112137;28;20050;-72
2022/04/10 08:08:03;;;;;;;2.92;1.40;;;24.10;63.50;;;;;;5112792;28;20051;-73
2022/04/10 08:11:07;;;;;;;2.55;1.30;;;25.30;63.60;;;;;;5113363;28;20515;-73
2022/04/10 08:14:11;;;;;;;2.83;1.38;;;20.50;61.80;;;;;;5112928;28;20050;-72
2022/04/10 08:17:15;;;;;;;2.95;1.20;;;21.30;65.50;;;;;;5112190;28;20047;-73
2022/04/10 08:20:20;;;;;;;3.60;1.33;;;21.70;63.20;;;;;;5113577;28;20047;-73
2022/04/10 08:23:24;;;;;;;4.88;1.10;;;19.80;66.10;;;;;;5112526;28;20378;-73
2022/04/10 08:26:30;;;;;;;4.72;1.10;;;18.70;67.80;;;;;;5113153;28;20067;-72
2022/04/10 08:29:34;;;;;;;6.03;0.90;;;17.10;68.10;;;;;;5113535;28;20478;-72
2022/04/10 08:32:43;;;;;;;1.10;0.70;;;18.30;69.40;;;;;;5112782;28;20058;-72
2022/04/10 08:35:47;;;;;;;1.00;0.68;;;20.50;66.60;;;;;;5113220;28;20489;-63
2022/04/10 08:38:51;;;;;;;2.15;0.73;;;18.20;64.40;;;;;;5112869;28;20046;-63
2022/04/10 08:42:01;;;;;;;1.08;0.80;;;18.90;62.60;;;;;;5112225;28;20058;-63
2022/04/10 08:45:08;;;;;;;2.03;0.70;;;22.60;60.30;;;;;;5112045;28;20047;-64
2022/04/10 08:48:13;;;;;;;1.08;0.60;;;21.40;59.90;;;;;;5111793;28;20042;-63
2022/04/10 08:51:17;;;;;;;2.30;0.60;;;20.50;61.30;;;;;;5111886;28;20046;-64
2022/04/10 08:54:22;;;;;;;1.13;0.70;;;21.10;60.80;;;;;;5112054;28;20058;-63
2022/04/10 08:57:26;;;;;;;1.10;0.70;;;21.20;59.60;;;;;;5111702;28;20039;-63
2022/04/10 09:00:30;;;;;;;3.47;0.77;;;24.20;57.20;;;;;;5112316;28;20054;-63
2022/04/10 09:03:35;;;;;;;1.73;0.52;;;22.30;56.10;;;;;;5111381;28;20043;-63
2022/04/10 09:06:40;;;;;;;1.25;0.50;;;22.10;59.30;;;;;;5110942;28;20046;-64
2022/04/10 09:09:54;;;;;;;1.63;0.70;;;22.90;57.00;;;;;;5111835;28;20050;-63
2022/04/10 09:13:07;;;;;;;2.10;0.90;;;25.00;54.40;;;;;;5111442;28;20046;-63
2022/04/10 09:16:15;;;;;;;2.75;0.90;;;26.10;54.30;;;;;;5110931;28;20043;-63
2022/04/10 09:19:20;;;;;;;1.30;0.90;;;26.40;54.50;;;;;;5111834;28;20383;-63
2022/04/10 09:22:40;;;;;;;1.90;0.80;;;26.20;52.50;;;;;;5111426;28;20046;-63
2022/04/10 09:25:44;;;;;;;1.60;0.80;;;27.10;53.10;;;;;;5111748;28;20047;-64
2022/04/10 09:28:51;;;;;;;2.22;1.23;;;27.70;51.70;;;;;;5111549;28;20039;-64
2022/04/10 09:31:55;;;;;;;2.90;0.60;;;28.40;53.00;;;;;;5111319;28;20067;-64
2022/04/10 09:34:59;;;;;;;1.38;0.82;;;30.50;51.20;;;;;;5111532;28;20047;-64
2022/04/10 09:38:03;;;;;;;2.78;0.80;;;30.80;46.50;;;;;;5110660;28;20070;-64
2022/04/10 09:41:13;;;;;;;1.92;0.90;;;31.30;47.40;;;;;;5111504;28;20038;-64
2022/04/10 09:44:22;;;;;;;2.10;1.30;;;31.50;47.80;;;;;;5111308;28;20502;-64
2022/04/10 09:47:26;;;;;;;2.88;1.23;;;31.60;47.70;;;;;;5110772;28;20047;-64
2022/04/10 09:50:32;;;;;;;1.92;1.30;;;30.60;47.00;;;;;;5111157;28;20043;-65
2022/04/10 09:53:37;;;;;;;3.20;1.75;;;30.90;46.10;;;;;;5110909;28;20035;-64
2022/04/10 09:56:41;;;;;;;1.52;1.00;;;31.80;44.50;;;;;;5111389;28;20058;-64
2022/04/10 09:59:52;;;;;;;1.60;0.90;;;33.00;44.80;;;;;;5115543;28;20047;-65
2022/04/10 10:02:55;;;;;;;;;;;34.50;45.10;;;;;;5115922;28;20051;-65
2022/04/10 10:05:59;;;;;;;1.13;0.68;;;35.10;43.50;;;;;;5115168;28;19911;-63
2022/04/10 10:09:04;;;;;;;1.15;0.80;;;35.00;41.70;;;;;;5115040;28;20043;-64
2022/04/10 10:12:09;;;;;;;1.77;1.10;;;35.10;41.00;;;;;;5115357;28;20038;-64
2022/04/10 10:15:13;;;;;;;1.70;0.50;;;36.40;41.70;;;;;;5115115;28;20047;-64
2022/04/10 10:18:18;;;;;;;1.55;0.73;;;35.80;39.40;;;;;;5114293;28;20402;-64
2022/04/10 10:21:23;;;;;;;1.33;0.60;;;35.50;38.70;;;;;;5114627;28;20034;-64
2022/04/10 10:24:33;;;;;;;1.45;0.40;;;35.80;39.10;;;;;;5114674;28;20030;-65
2022/04/10 10:27:55;;;;;;;2.88;0.60;;;36.10;40.00;;;;;;5113965;28;20689;-63
2022/04/10 10:31:22;;;;;;;1.02;0.50;;;35.00;38.70;;;;;;5114540;28;20067;-64
2022/04/10 10:34:28;;;;;;;1.25;0.60;;;34.40;39.60;;;;;;5114428;28;20047;-64
2022/04/10 10:37:54;;;;;;;1.20;0.60;;;33.60;39.60;;;;;;5114348;28;20051;-64
2022/04/10 10:41:17;;;;;;;2.47;0.60;;;34.20;40.20;;;;;;5114250;28;20375;-63
2022/04/10 10:44:25;;;;;;;1.10;0.60;;;33.50;37.60;;;;;;5114310;28;20090;-63
2022/04/10 10:47:32;;;;;;;0.82;0.50;;;33.60;38.70;;;;;;5113775;28;20416;-65
2022/04/10 10:50:36;;;;;;;1.10;0.60;;;33.70;37.50;;;;;;5114001;28;20042;-65
2022/04/10 10:53:57;;;;;;;4.97;0.60;;;33.30;37.30;;;;;;5114470;28;20485;-62
2022/04/10 10:57:31;;;;;;;0.70;0.40;;;33.60;39.50;;;;;;5114173;28;20371;-75
2022/04/10 11:00:38;;;;;;;1.00;0.47;;;32.00;37.20;;;;;;5114151;28;20378;-74
2022/04/10 11:04:02;;;;;;;0.63;0.30;;;31.10;37.60;;;;;;5114198;28;20047;-74
2022/04/10 11:07:24;;;;;;;2.75;0.40;;;30.80;37.90;;;;;;5113519;28;20508;-73
2022/04/10 11:10:30;;;;;;;1.70;0.70;;;30.60;39.10;;;;;;5113762;28;20047;-73
2022/04/10 11:13:41;;;;;;;0.55;0.40;;;30.50;39.30;;;;;;5113715;28;20042;-75
2022/04/10 11:16:45;;;;;;;1.10;0.50;;;30.40;38.50;;;;;;5113863;28;20062;-75
2022/04/10 11:19:54;;;;;;;1.13;0.50;;;31.00;39.80;;;;;;5114397;28;20047;-76
2022/04/10 11:23:00;;;;;;;2.17;0.40;;;31.20;39.10;;;;;;5114008;28;20051;-74
2022/04/10 11:26:09;;;;;;;1.15;0.50;;;30.50;39.00;;;;;;5113469;28;20058;-75
2022/04/10 11:29:15;;;;;;;0.50;0.50;;;30.30;39.30;;;;;;5114268;28;20485;-75
2022/04/10 11:32:23;;;;;;;0.65;0.50;;;31.30;39.10;;;;;;5114092;28;20051;-74
2022/04/10 11:35:35;;;;;;;0.65;0.40;;;31.40;39.00;;;;;;5113929;28;20046;-74
2022/04/10 11:38:39;;;;;;;1.25;0.75;;;30.40;38.50;;;;;;5113321;28;20046;-74
2022/04/10 11:41:43;;;;;;;0.80;0.40;;;30.80;39.10;;;;;;5113770;28;20069;-74
2022/04/10 11:44:49;;;;;;;1.50;0.73;;;31.20;40.10;;;;;;5112955;28;20096;-74
2022/04/10 11:47:53;;;;;;;1.27;0.68;;;31.00;39.70;;;;;;5112524;28;20050;-74
2022/04/10 11:51:09;;;;;;;1.13;0.50;;;30.90;40.00;;;;;;5112592;28;20046;-73
2022/04/10 11:54:13;;;;;;;0.88;0.40;;;31.80;39.10;;;;;;5112827;28;20051;-74
2022/04/10 11:57:17;;;;;;;1.35;0.70;;;31.10;37.50;;;;;;5112572;28;20915;-74
2022/04/10 12:00:21;;;;;;;1.15;0.73;;;31.00;38.00;;;;;;5112736;28;20394;-74
2022/04/10 12:03:27;;;;;;;1.65;0.80;;;30.70;37.70;;;;;;5113054;28;20059;-74
2022/04/10 12:06:31;;;;;;;4.13;0.50;;;31.30;37.50;;;;;;5112216;28;20517;-74
2022/04/10 12:09:35;;;;;;;1.42;0.60;;;31.40;38.00;;;;;;5112833;28;20042;-75
2022/04/10 12:12:40;;;;;;;0.60;0.50;;;31.40;37.20;;;;;;5112816;28;20042;-74
2022/04/10 12:15:44;;;;;;;1.67;0.80;;;31.50;38.70;;;;;;5111200;28;20039;-74
2022/04/10 12:18:52;;;;;;;0.85;0.50;;;31.40;37.50;;;;;;5112370;28;20071;-74
2022/04/10 12:21:57;;;;;;;1.25;0.43;;;31.70;36.60;;;;;;5112878;28;20039;-73
2022/04/10 12:25:03;;;;;;;2.85;0.50;;;32.00;37.60;;;;;;5112510;28;20027;-73
2022/04/10 12:28:07;;;;;;;1.15;0.60;;;32.70;38.40;;;;;;5111963;28;20042;-74
2022/04/10 12:31:12;;;;;;;1.15;0.77;;;32.30;37.00;;;;;;5112629;28;20478;-74
2022/04/10 12:34:17;;;;;;;0.50;0.40;;;32.20;37.50;;;;;;5112705;28;20501;-74
2022/04/10 12:37:21;;;;;;;1.17;0.80;;;31.80;35.90;;;;;;5111547;28;20051;-74
2022/04/10 12:40:27;;;;;;;1.08;0.50;;;31.20;36.30;;;;;;5112158;28;20051;-73
2022/04/10 12:43:31;;;;;;;0.80;0.60;;;31.80;37.70;;;;;;5112025;28;20050;-74
2022/04/10 12:46:37;;;;;;;0.93;0.60;;;32.30;38.10;;;;;;5111471;28;20398;-74
2022/04/10 12:50:02;;;;;;;0.90;0.60;;;33.10;37.50;;;;;;5112269;28;20043;-74
2022/04/10 12:53:10;;;;;;;0.70;0.50;;;32.10;36.40;;;;;;5112394;28;20047;-74
2022/04/10 12:56:20;;;;;;;1.50;0.82;;;31.20;38.10;;;;;;5111345;28;20367;-73
2022/04/10 12:59:39;;;;;;;0.63;0.43;;;30.80;38.20;;;;;;5112204;28;20050;-74
2022/04/10 13:02:42;;;;;;;0.82;0.47;;;31.00;39.70;;;;;;5111937;28;20051;-74
2022/04/10 13:06:06;;;;;;;1.10;0.52;;;30.80;38.10;;;;;;5111555;28;20058;-74
2022/04/10 13:09:12;;;;;;;1.38;0.85;;;30.30;38.10;;;;;;5111899;28;20047;-74
2022/04/10 13:12:23;;;;;;;1.83;0.70;;;29.60;38.70;;;;;;5112078;28;20043;-73
2022/04/10 13:15:33;;;;;;;1.17;0.63;;;29.50;38.40;;;;;;5111518;28;20417;-75
2022/04/10 13:18:37;;;;;;;0.75;0.40;;;29.40;39.50;;;;;;5111661;28;20038;-73
2022/04/10 13:21:43;;;;;;;1.00;0.55;;;29.70;39.30;;;;;;5111781;28;20051;-73
2022/04/10 13:24:47;;;;;;;1.55;0.60;;;29.60;39.30;;;;;;5112184;28;20051;-73
2022/04/10 13:27:53;;;;;;;1.98;0.60;;;30.30;39.90;;;;;;5110860;28;20101;-74
2022/04/10 13:30:58;;;;;;;2.05;0.57;;;29.90;38.80;;;;;;5111477;28;20633;-73
2022/04/10 13:34:04;;;;;;;0.70;0.55;;;29.10;38.40;;;;;;5111503;28;20394;-73
2022/04/10 13:37:08;;;;;;;2.65;0.40;;;28.20;40.00;;;;;;5110779;28;20125;-73
2022/04/10 13:40:15;;;;;;;1.58;0.80;;;28.50;40.20;;;;;;5111836;28;20054;-74
2022/04/10 13:43:19;;;;;;;1.15;0.60;;;28.80;39.60;;;;;;5111722;28;20054;-75
2022/04/10 13:46:24;;;;;;;1.52;0.60;;;28.60;40.20;;;;;;5110743;28;20375;-75
2022/04/10 13:49:28;;;;;;;2.20;1.00;;;28.50;39.40;;;;;;5110828;28;20050;-75
2022/04/10 13:52:32;;;;;;;1.55;0.70;;;27.90;40.70;;;;;;5111912;28;20043;-74
2022/04/10 13:55:37;;;;;;;1.65;0.50;;;28.00;41.30;;;;;;5111714;28;20051;-75
2022/04/10 13:58:42;;;;;;;1.05;0.73;;;27.30;41.30;;;;;;5111820;28;20374;-74
2022/04/10 14:01:46;;;;;;;1.92;0.60;;;26.80;40.80;;;;;;5111676;28;20058;-74
2022/04/10 14:04:50;;;;;;;1.00;0.50;;;25.80;41.80;;;;;;5111760;28;20479;-74
2022/04/10 14:07:53;;;;;;;1.55;0.70;;;24.60;42.00;;;;;;5110852;28;20051;-74
2022/04/10 14:10:58;;;;;;;0.90;0.47;;;23.70;41.90;;;;;;5111555;28;20776;-74
2022/04/10 14:14:02;;;;;;;1.55;0.70;;;23.00;43.50;;;;;;5111167;28;20047;-75
2022/04/10 14:17:07;;;;;;;1.20;0.57;;;22.60;42.40;;;;;;5110326;28;20652;-74
2022/04/10 14:20:11;;;;;;;1.10;0.68;;;22.20;42.50;;;;;;5109688;28;20051;-74
2022/04/10 14:23:16;;;;;;;1.65;0.40;;;22.50;41.70;;;;;;5110561;28;20047;-74
2022/04/10 14:26:20;;;;;;;0.63;0.43;;;22.40;43.60;;;;;;5110261;28;20047;-74
2022/04/10 14:29:24;;;;;;;4.93;1.50;;;22.00;42.10;;;;;;5110866;28;20054;-74
2022/04/10 14:32:28;;;;;;;1.48;0.90;;;21.80;44.20;;;;;;5111128;28;20051;-74
2022/04/10 14:35:32;;;;;;;0.65;0.50;;;21.80;44.20;;;;;;5110953;28;20047;-74
2022/04/10 14:38:36;;;;;;;1.08;0.77;;;21.30;44.50;;;;;;5110993;28;20047;-73
2022/04/10 14:41:43;;;;;;;1.63;0.70;;;20.90;46.00;;;;;;5111024;28;20050;-74
2022/04/10 14:44:48;;;;;;;1.08;0.70;;;20.50;44.80;;;;;;5113465;28;20498;-74
2022/04/10 14:47:52;;;;;;;0.85;0.65;;;19.70;42.50;;;;;;5113611;28;20050;-74
2022/04/10 14:50:56;;;;;;;1.17;0.57;;;19.00;43.50;;;;;;5114062;28;20047;-74
2022/04/10 14:54:00;;;;;;;1.17;0.63;;;19.10;46.00;;;;;;5114463;28;20043;-75
2022/04/10 14:57:04;;;;;;;3.03;2.17;;;19.40;48.30;;;;;;5113648;28;20402;-73
2022/04/10 15:00:09;;;;;;;2.05;0.82;;;19.60;46.80;;;;;;5114672;28;20503;-74
2022/04/10 15:03:14;;;;;;;1.35;0.65;;;19.70;46.90;;;;;;5114068;28;20050;-74
2022/04/10 15:06:19;;;;;;;3.17;1.33;;;19.50;47.90;;;;;;5113502;28;20055;-74
2022/04/10 15:09:23;;;;;;;1.50;0.70;;;19.30;47.20;;;;;;5114181;28;20055;-74
2022/04/10 15:12:27;;;;;;;0.93;0.68;;;19.20;47.60;;;;;;5112969;28;20044;-74
2022/04/10 15:15:31;;;;;;;1.30;0.73;;;19.00;47.40;;;;;;5114148;28;20059;-75
2022/04/10 15:18:36;;;;;;;1.08;0.73;;;18.90;47.40;;;;;;5112902;28;20494;-75
2022/04/10 15:21:40;;;;;;;1.15;0.60;;;18.60;48.10;;;;;;5113812;28;20051;-74
2022/04/10 15:24:44;;;;;;;2.65;0.70;;;18.40;48.70;;;;;;5114059;28;20050;-74
2022/04/10 15:27:49;;;;;;;2.45;0.80;;;18.30;48.90;;;;;;5112620;28;20054;-74
2022/04/10 15:30:53;;;;;;;0.90;0.50;;;18.40;48.10;;;;;;5113678;28;20062;-74
2022/04/10 15:33:57;;;;;;;1.13;0.70;;;18.40;47.80;;;;;;5113676;28;20410;-73
2022/04/10 15:37:01;;;;;;;1.52;0.60;;;18.30;48.10;;;;;;5112873;28;20067;-73
2022/04/10 15:40:05;;;;;;;0.93;0.70;;;18.20;48.10;;;;;;5113367;28;20389;-74
2022/04/10 15:43:09;;;;;;;1.20;0.70;;;17.50;47.30;;;;;;5113363;28;20054;-74
2022/04/10 15:46:13;;;;;;;1.60;0.70;;;16.70;47.40;;;;;;5112719;28;20064;-74
2022/04/10 15:49:18;;;;;;;1.70;0.70;;;16.60;51.00;;;;;;5113225;28;20042;-73
2022/04/10 15:52:22;;;;;;;5.35;0.85;;;17.00;50.10;;;;;;5112846;28;20501;-73
2022/04/10 15:55:26;;;;;;;0.75;0.55;;;17.30;51.50;;;;;;5112972;28;20394;-74
2022/04/10 15:58:30;;;;;;;1.35;0.60;;;17.20;47.60;;;;;;5112777;28;20042;-73
2022/04/10 16:01:35;;;;;;;1.17;0.60;;;16.70;50.10;;;;;;5113329;28;20051;-73
2022/04/10 16:04:38;;;;;;;8.75;0.90;;;16.30;49.30;;;;;;5113245;28;20046;-74
2022/04/10 16:07:43;;;;;;;1.10;0.70;;;16.70;51.40;;;;;;5112212;28;20039;-74
2022/04/10 16:10:48;;;;;;;2.00;0.73;;;16.70;49.10;;;;;;5113056;28;20050;-73
2022/04/10 16:13:52;;;;;;;3.10;0.65;;;16.80;48.40;;;;;;5112784;28;20052;-73
2022/04/10 16:16:56;;;;;;;1.88;0.82;;;16.30;48.90;;;;;;5112313;28;20061;-74
2022/04/10 16:20:00;;;;;;;2.03;0.60;;;16.60;48.20;;;;;;5112727;28;20038;-73
2022/04/10 16:23:05;;;;;;;1.98;1.08;;;16.60;50.30;;;;;;5112460;28;20046;-74
2022/04/10 16:26:11;;;;;;;1.30;0.82;;;16.10;49.40;;;;;;5111376;28;20489;-74
2022/04/10 16:32:46;;;;;;;2.50;0.98;;;16.20;51.00;;;;;;5112481;28;20043;-74
2022/04/10 16:35:49;;;;;;;1.35;0.90;;;16.20;50.00;;;;;;5112765;28;20051;-73
2022/04/10 16:38:54;;;;;;;3.15;1.00;;;15.80;50.20;;;;;;5111492;28;20038;-73
2022/04/10 16:41:58;;;;;;;1.60;0.70;;;15.80;50.60;;;;;;5112419;28;20047;-74